Time;durP1;ratioP1;P1;durP2;ratioP2;P2;SDS_P1;SDS_P2;PMS_P1;PMS_P2;Temp;Humidity;BMP_temperature;BMP_pressure;BME280_temperature;BME280_humidity;BME280_pressure;Samples;Min_cycle;Max_cycle;Signal;HPM_P1;HPM_P2
2021/12/29 00:01:25;;;;;;;2.90;2.40;;;;;;;;;;5044481;28;20025;-34
2021/12/29 00:03:50;;;;;;;3.60;2.90;;;;;;;;;;5044374;28;20035;-32
2021/12/29 00:06:16;;;;;;;3.97;2.97;;;;;;;;;;5044715;28;20551;-30
2021/12/29 00:08:42;;;;;;;3.13;2.63;;;;;;;;;;5043950;28;20056;-30
2021/12/29 00:11:07;;;;;;;3.55;2.55;;;;;;;;;;5043920;28;20037;-30
2021/12/29 00:13:33;;;;;;;3.25;2.75;;;;;;;;;;5044132;28;20863;-37
2021/12/29 00:15:58;;;;;;;3.40;2.42;;;;;;;;;;5043671;28;20032;-33
2021/12/29 00:18:25;;;;;;;2.97;2.33;;;;;;;;;;5036948;28;20029;-31
2021/12/29 00:20:51;;;;;;;3.10;2.60;;;;;;;;;;5024053;28;20550;-36
2021/12/29 00:23:16;;;;;;;3.08;2.47;;;;;;;;;;5024374;28;20040;-30
2021/12/29 00:25:42;;;;;;;3.08;2.45;;;;;;;;;;5023882;28;20048;-29
2021/12/29 00:28:07;;;;;;;2.80;2.35;;;;;;;;;;5024032;28;20092;-34
2021/12/29 00:30:33;;;;;;;3.35;2.58;;;;;;;;;;5024054;28;20037;-34
2021/12/29 00:32:59;;;;;;;4.30;2.30;;;;;;;;;;5024144;28;20075;-34
2021/12/29 00:35:24;;;;;;;2.88;2.47;;;;;;;;;;5023865;28;20545;-33
2021/12/29 00:37:50;;;;;;;2.83;2.53;;;;;;;;;;5023703;28;20637;-30
2021/12/29 00:40:15;;;;;;;2.78;2.38;;;;;;;;;;5023440;28;20474;-32
2021/12/29 00:42:41;;;;;;;2.70;2.45;;;;;;;;;;5023624;28;20100;-33
2021/12/29 00:45:07;;;;;;;3.03;2.70;;;;;;;;;;5023352;28;20099;-36
2021/12/29 00:47:34;;;;;;;3.15;2.65;;;;;;;;;;5023376;28;20044;-35
2021/12/29 00:50:09;;;;;;;2.97;2.40;;;;;;;;;;5033864;28;20473;-30
2021/12/29 00:52:34;;;;;;;2.60;2.20;;;;;;;;;;5024290;28;20032;-33
2021/12/29 00:55:00;;;;;;;3.03;2.40;;;;;;;;;;5023226;28;20040;-31
2021/12/29 00:57:26;;;;;;;3.38;2.33;;;;;;;;;;5028901;28;20056;-31
2021/12/29 00:59:51;;;;;;;3.00;2.70;;;;;;;;;;5043119;28;20033;-34
2021/12/29 01:02:17;;;;;;;2.80;2.30;;;;;;;;;;5043327;28;20118;-32
2021/12/29 01:04:42;;;;;;;2.90;2.30;;;;;;;;;;5043010;28;20503;-31
2021/12/29 01:07:08;;;;;;;3.60;2.78;;;;;;;;;;5043058;28;20036;-31
2021/12/29 01:09:33;;;;;;;2.97;2.67;;;;;;;;;;5043013;28;20037;-37
2021/12/29 01:12:00;;;;;;;2.83;2.30;;;;;;;;;;5042979;28;20044;-32
2021/12/29 01:14:26;;;;;;;3.38;2.60;;;;;;;;;;5043432;28;20029;-34
2021/12/29 01:16:52;;;;;;;3.08;2.40;;;;;;;;;;5043379;28;20112;-31
2021/12/29 01:19:19;;;;;;;3.03;2.55;;;;;;;;;;5043174;28;20775;-30
2021/12/29 01:21:46;;;;;;;2.72;2.35;;;;;;;;;;5042956;28;20055;-35
2021/12/29 01:24:12;;;;;;;2.92;2.25;;;;;;;;;;5041337;28;20039;-32
2021/12/29 01:26:38;;;;;;;2.33;2.10;;;;;;;;;;5042179;28;20037;-32
2021/12/29 01:29:04;;;;;;;3.55;2.60;;;;;;;;;;5042629;28;20832;-31
2021/12/29 01:31:29;;;;;;;3.20;2.42;;;;;;;;;;5042925;28;20032;-35
2021/12/29 01:33:55;;;;;;;2.55;2.25;;;;;;;;;;5042451;28;20525;-29
2021/12/29 01:36:20;;;;;;;3.40;2.65;;;;;;;;;;5042654;28;20028;-35
2021/12/29 01:38:46;;;;;;;2.60;2.25;;;;;;;;;;5043041;28;20458;-34
2021/12/29 01:41:11;;;;;;;3.15;2.63;;;;;;;;;;5042727;28;20025;-35
2021/12/29 01:43:37;;;;;;;3.72;2.90;;;;;;;;;;5042944;28;20029;-32
2021/12/29 01:46:02;;;;;;;3.58;2.78;;;;;;;;;;5042611;28;20032;-33
2021/12/29 01:48:28;;;;;;;2.97;2.05;;;;;;;;;;5041394;28;20021;-31
2021/12/29 01:50:54;;;;;;;2.65;2.25;;;;;;;;;;5041968;28;20445;-30
2021/12/29 01:53:25;;;;;;;2.53;2.33;;;;;;;;;;5042461;28;20048;-31
2021/12/29 01:55:51;;;;;;;2.95;2.40;;;;;;;;;;5042696;28;20032;-34
2021/12/29 01:58:16;;;;;;;3.00;2.50;;;;;;;;;;5042850;28;20453;-36
2021/12/29 02:00:42;;;;;;;2.50;2.20;;;;;;;;;;5042599;28;20852;-33
2021/12/29 02:03:08;;;;;;;2.60;2.10;;;;;;;;;;5042684;28;20463;-35
2021/12/29 02:05:37;;;;;;;3.17;2.40;;;;;;;;;;5042599;28;20669;-31
2021/12/29 02:08:04;;;;;;;2.42;2.20;;;;;;;;;;5035855;28;20053;-34
2021/12/29 02:10:33;;;;;;;2.40;2.20;;;;;;;;;;5022604;28;20032;-30
2021/12/29 02:12:59;;;;;;;3.22;2.20;;;;;;;;;;5022362;28;20326;-30
2021/12/29 02:15:24;;;;;;;2.70;2.13;;;;;;;;;;5022586;28;20029;-32
2021/12/29 02:17:50;;;;;;;2.85;2.38;;;;;;;;;;5022330;28;20030;-32
2021/12/29 02:20:18;;;;;;;2.58;2.25;;;;;;;;;;5022571;28;20112;-31
2021/12/29 02:22:49;;;;;;;2.58;2.08;;;;;;;;;;5021812;28;20642;-32
2021/12/29 02:27:47;;;;;;;3.42;2.20;;;;;;;;;;5022501;28;20053;-34
2021/12/29 02:30:13;;;;;;;2.58;2.22;;;;;;;;;;5022599;28;20061;-32
2021/12/29 02:32:39;;;;;;;2.72;2.30;;;;;;;;;;5022501;28;20130;-34
2021/12/29 02:35:05;;;;;;;2.40;2.10;;;;;;;;;;5022521;28;20108;-34
2021/12/29 02:37:30;;;;;;;2.35;2.00;;;;;;;;;;5022877;28;20090;-33
2021/12/29 02:39:56;;;;;;;2.92;2.47;;;;;;;;;;5025807;28;20025;-30
2021/12/29 02:42:25;;;;;;;2.92;2.40;;;;;;;;;;5025889;28;20033;-35
2021/12/29 02:44:52;;;;;;;3.33;2.20;;;;;;;;;;5029589;28;20029;-30
2021/12/29 02:47:17;;;;;;;2.50;2.05;;;;;;;;;;5045803;28;20044;-30
2021/12/29 02:49:45;;;;;;;2.28;2.08;;;;;;;;;;5045588;28;20485;-30
2021/12/29 02:52:11;;;;;;;2.60;2.00;;;;;;;;;;5028688;28;20495;-30
2021/12/29 02:54:37;;;;;;;2.40;2.20;;;;;;;;;;5025674;28;20037;-32
2021/12/29 02:57:02;;;;;;;2.15;1.83;;;;;;;;;;5025813;28;20038;-34
2021/12/29 02:59:28;;;;;;;2.58;2.05;;;;;;;;;;5025602;28;20770;-36
2021/12/29 03:01:54;;;;;;;2.83;2.25;;;;;;;;;;5025357;28;20033;-34
2021/12/29 03:04:19;;;;;;;2.78;2.10;;;;;;;;;;5025690;28;20048;-34
2021/12/29 03:06:45;;;;;;;2.90;2.10;;;;;;;;;;5025536;28;20703;-29
2021/12/29 03:09:11;;;;;;;3.05;2.33;;;;;;;;;;5025405;28;20053;-33
2021/12/29 03:11:37;;;;;;;2.67;2.10;;;;;;;;;;5025307;28;20037;-35
2021/12/29 03:14:03;;;;;;;3.42;2.45;;;;;;;;;;5025041;28;20033;-37
2021/12/29 03:16:29;;;;;;;2.60;2.40;;;;;;;;;;5025355;28;20075;-36
2021/12/29 03:18:54;;;;;;;3.20;2.67;;;;;;;;;;5025146;28;20111;-29
2021/12/29 03:21:20;;;;;;;2.22;1.88;;;;;;;;;;5024887;28;20763;-33
2021/12/29 03:23:45;;;;;;;2.78;2.08;;;;;;;;;;5024891;28;20025;-30
2021/12/29 03:26:11;;;;;;;3.30;2.50;;;;;;;;;;5025329;28;20030;-30
2021/12/29 03:28:37;;;;;;;2.60;2.15;;;;;;;;;;5023829;28;20470;-35
2021/12/29 03:31:03;;;;;;;2.83;2.17;;;;;;;;;;5024702;28;20034;-34
2021/12/29 03:33:31;;;;;;;2.67;2.30;;;;;;;;;;5025058;28;20687;-31
2021/12/29 03:36:01;;;;;;;2.90;2.30;;;;;;;;;;5024635;28;20024;-31
2021/12/29 03:38:27;;;;;;;2.58;2.33;;;;;;;;;;5024988;28;20044;-29
2021/12/29 03:40:54;;;;;;;2.50;2.30;;;;;;;;;;5024681;28;20060;-29
2021/12/29 03:43:19;;;;;;;2.20;1.90;;;;;;;;;;5024590;28;20526;-34
2021/12/29 03:45:46;;;;;;;3.60;2.67;;;;;;;;;;5024938;28;20033;-30
2021/12/29 03:48:11;;;;;;;3.13;2.60;;;;;;;;;;5024772;28;20033;-31
2021/12/29 03:50:37;;;;;;;2.65;2.25;;;;;;;;;;5028020;28;20060;-31
2021/12/29 03:53:05;;;;;;;2.10;1.65;;;;;;;;;;5044388;28;20089;-31
2021/12/29 03:55:31;;;;;;;3.08;2.30;;;;;;;;;;5044487;28;20037;-33
2021/12/29 03:57:56;;;;;;;3.13;2.40;;;;;;;;;;5044384;28;20086;-30
2021/12/29 04:00:22;;;;;;;2.83;2.40;;;;;;;;;;5044089;28;20108;-32
2021/12/29 04:02:48;;;;;;;2.75;2.35;;;;;;;;;;5044055;28;20076;-33
2021/12/29 04:05:16;;;;;;;2.90;2.38;;;;;;;;;;5044497;28;20056;-32
2021/12/29 04:07:41;;;;;;;2.53;2.22;;;;;;;;;;5043995;28;20080;-31
2021/12/29 04:10:08;;;;;;;2.95;2.22;;;;;;;;;;5044345;28;20158;-30
2021/12/29 04:12:34;;;;;;;2.70;2.25;;;;;;;;;;5043887;28;20024;-35
2021/12/29 04:14:59;;;;;;;3.35;2.65;;;;;;;;;;5044301;28;20029;-30
2021/12/29 04:17:29;;;;;;;3.00;2.30;;;;;;;;;;5044216;28;20021;-32
2021/12/29 04:22:39;;;;;;;3.05;2.40;;;;;;;;;;5043891;28;20101;-33
2021/12/29 04:25:05;;;;;;;3.13;2.53;;;;;;;;;;5043929;28;20517;-30
2021/12/29 04:27:31;;;;;;;2.85;2.30;;;;;;;;;;5043503;28;20120;-33
2021/12/29 04:29:56;;;;;;;3.05;2.33;;;;;;;;;;5043693;28;20075;-32
2021/12/29 04:32:22;;;;;;;2.40;2.15;;;;;;;;;;5043534;28;20425;-33
2021/12/29 04:34:47;;;;;;;3.08;2.20;;;;;;;;;;5043684;28;20525;-31
2021/12/29 04:37:12;;;;;;;2.55;2.20;;;;;;;;;;5043549;28;20044;-29
2021/12/29 04:39:38;;;;;;;3.30;2.65;;;;;;;;;;5043675;28;20032;-33
2021/12/29 04:42:04;;;;;;;2.90;2.38;;;;;;;;;;5043258;28;20420;-35
2021/12/29 04:44:29;;;;;;;2.63;2.00;;;;;;;;;;5043603;28;20033;-29
2021/12/29 04:46:57;;;;;;;3.65;2.38;;;;;;;;;;5043091;28;20517;-29
2021/12/29 04:49:26;;;;;;;2.97;2.30;;;;;;;;;;5043386;28;20032;-31
2021/12/29 04:52:02;;;;;;;3.42;2.58;;;;;;;;;;5027712;28;20120;-34
2021/12/29 04:54:27;;;;;;;3.38;2.50;;;;;;;;;;5023209;28;20108;-32
2021/12/29 04:56:54;;;;;;;3.03;2.42;;;;;;;;;;5023613;28;20029;-36
2021/12/29 04:59:20;;;;;;;3.17;2.42;;;;;;;;;;5023531;28;20033;-33
2021/12/29 05:01:46;;;;;;;3.20;2.38;;;;;;;;;;5022901;28;20034;-28
2021/12/29 05:04:19;;;;;;;2.97;2.40;;;;;;;;;;5023294;28;20061;-34
2021/12/29 05:09:29;;;;;;;3.53;2.40;;;;;;;;;;5023192;28;19928;-32
2021/12/29 05:11:54;;;;;;;3.45;2.22;;;;;;;;;;5022725;28;20037;-32
2021/12/29 05:14:20;;;;;;;3.75;2.78;;;;;;;;;;5023184;28;20032;-33
2021/12/29 05:16:45;;;;;;;4.53;2.50;;;;;;;;;;5022747;28;20033;-30
2021/12/29 05:19:11;;;;;;;3.33;2.33;;;;;;;;;;5023124;28;20052;-30
2021/12/29 05:21:36;;;;;;;3.55;2.63;;;;;;;;;;5023023;28;20033;-33
2021/12/29 05:24:02;;;;;;;2.53;2.17;;;;;;;;;;5022894;28;20033;-31
2021/12/29 05:26:27;;;;;;;3.17;2.35;;;;;;;;;;5022896;28;20057;-33
2021/12/29 05:28:53;;;;;;;3.38;2.47;;;;;;;;;;5022525;28;20033;-33
2021/12/29 05:31:18;;;;;;;2.72;2.33;;;;;;;;;;5022890;28;20037;-30
2021/12/29 05:33:44;;;;;;;3.47;2.63;;;;;;;;;;5022673;28;20030;-29
2021/12/29 05:36:09;;;;;;;3.88;2.50;;;;;;;;;;5022946;28;20021;-34
2021/12/29 05:38:35;;;;;;;3.33;2.30;;;;;;;;;;5023010;28;20486;-33
2021/12/29 05:41:00;;;;;;;3.20;2.45;;;;;;;;;;5022810;28;20027;-33
2021/12/29 05:43:26;;;;;;;3.90;2.70;;;;;;;;;;5022871;28;20033;-33
2021/12/29 05:45:52;;;;;;;3.67;2.50;;;;;;;;;;5021281;28;20187;-30
2021/12/29 05:48:18;;;;;;;3.75;2.60;;;;;;;;;;5022699;28;20068;-31
2021/12/29 05:50:43;;;;;;;3.30;2.55;;;;;;;;;;5029005;28;20032;-31
2021/12/29 05:53:09;;;;;;;2.90;2.40;;;;;;;;;;5042491;28;20021;-34
2021/12/29 05:55:35;;;;;;;3.05;2.50;;;;;;;;;;5042535;28;20669;-34
2021/12/29 05:58:01;;;;;;;3.42;2.45;;;;;;;;;;5041958;28;20033;-33
2021/12/29 06:00:26;;;;;;;3.28;2.22;;;;;;;;;;5042306;28;20025;-32
2021/12/29 06:02:52;;;;;;;2.25;2.05;;;;;;;;;;5042377;28;20029;-33
2021/12/29 06:05:17;;;;;;;3.63;2.78;;;;;;;;;;5042376;28;20498;-28
2021/12/29 06:07:43;;;;;;;3.47;2.53;;;;;;;;;;5042117;28;20152;-31
2021/12/29 06:10:09;;;;;;;3.53;2.50;;;;;;;;;;5042373;28;20410;-32
2021/12/29 06:12:35;;;;;;;2.97;2.45;;;;;;;;;;5043163;28;20051;-34
2021/12/29 06:15:02;;;;;;;2.67;2.28;;;;;;;;;;5046266;28;20063;-36
2021/12/29 06:17:27;;;;;;;3.20;2.70;;;;;;;;;;5046434;28;20091;-35
2021/12/29 06:19:53;;;;;;;3.20;2.53;;;;;;;;;;5046082;28;20029;-33
2021/12/29 06:22:19;;;;;;;3.47;2.67;;;;;;;;;;5046216;28;20033;-33
2021/12/29 06:24:44;;;;;;;3.90;2.53;;;;;;;;;;5046220;28;20797;-30
2021/12/29 06:27:10;;;;;;;2.60;2.05;;;;;;;;;;5045837;28;20025;-30
2021/12/29 06:29:36;;;;;;;3.15;2.30;;;;;;;;;;5046321;28;20029;-32
2021/12/29 06:32:02;;;;;;;3.50;2.85;;;;;;;;;;5046288;28;20025;-37
2021/12/29 06:34:29;;;;;;;3.17;2.60;;;;;;;;;;5032549;28;20112;-31
2021/12/29 06:36:54;;;;;;;2.83;2.13;;;;;;;;;;5025756;28;20025;-32
2021/12/29 06:39:20;;;;;;;2.90;2.35;;;;;;;;;;5024481;28;20041;-34
2021/12/29 06:41:45;;;;;;;2.58;2.28;;;;;;;;;;5025542;28;20025;-32
2021/12/29 06:44:11;;;;;;;2.90;2.53;;;;;;;;;;5025880;28;20032;-35
2021/12/29 06:46:37;;;;;;;2.85;2.35;;;;;;;;;;5026105;28;20483;-30
2021/12/29 06:49:02;;;;;;;3.05;2.45;;;;;;;;;;5024110;28;20432;-32
2021/12/29 06:51:27;;;;;;;2.95;2.55;;;;;;;;;;5025947;28;20064;-33
2021/12/29 06:53:53;;;;;;;3.03;2.45;;;;;;;;;;5025514;28;20029;-33
2021/12/29 06:56:19;;;;;;;3.17;2.40;;;;;;;;;;5025755;28;20056;-35
2021/12/29 06:58:44;;;;;;;3.13;2.38;;;;;;;;;;5025691;28;20583;-29
2021/12/29 07:01:11;;;;;;;2.92;2.33;;;;;;;;;;5025793;28;20030;-30
2021/12/29 07:03:37;;;;;;;2.55;2.17;;;;;;;;;;5025283;28;20033;-33
2021/12/29 07:06:02;;;;;;;3.20;2.30;;;;;;;;;;5025117;28;20038;-35
2021/12/29 07:08:28;;;;;;;2.80;2.53;;;;;;;;;;5025356;28;20057;-31
2021/12/29 07:10:53;;;;;;;3.05;2.55;;;;;;;;;;5025160;28;20030;-31
2021/12/29 07:13:19;;;;;;;3.45;2.70;;;;;;;;;;5025399;28;20063;-33
2021/12/29 07:15:44;;;;;;;2.63;2.22;;;;;;;;;;5024970;28;20346;-30
2021/12/29 07:18:10;;;;;;;3.35;2.70;;;;;;;;;;5025077;28;20080;-32
2021/12/29 07:20:36;;;;;;;2.75;2.17;;;;;;;;;;5025095;28;20116;-35
2021/12/29 07:23:01;;;;;;;3.50;2.35;;;;;;;;;;5024744;28;20072;-33
2021/12/29 07:25:29;;;;;;;2.50;2.20;;;;;;;;;;5023613;28;20026;-31
2021/12/29 07:27:54;;;;;;;3.00;2.55;;;;;;;;;;5024650;28;20120;-33
2021/12/29 07:30:21;;;;;;;2.78;2.13;;;;;;;;;;5025350;28;20454;-32
2021/12/29 07:32:46;;;;;;;2.53;2.13;;;;;;;;;;5024999;28;20454;-31
2021/12/29 07:35:12;;;;;;;3.13;2.25;;;;;;;;;;5024786;28;20087;-32
2021/12/29 07:37:37;;;;;;;2.72;2.42;;;;;;;;;;5025288;28;20060;-35
2021/12/29 07:40:06;;;;;;;2.50;2.08;;;;;;;;;;5024851;28;20093;-38
2021/12/29 07:42:33;;;;;;;3.65;2.60;;;;;;;;;;5024482;28;20049;-35
2021/12/29 07:44:58;;;;;;;2.85;2.33;;;;;;;;;;5024931;28;20843;-35
2021/12/29 07:47:24;;;;;;;2.42;2.10;;;;;;;;;;5024834;28;20029;-32
2021/12/29 07:49:49;;;;;;;2.67;2.20;;;;;;;;;;5024633;28;20085;-35
2021/12/29 07:52:15;;;;;;;2.88;2.30;;;;;;;;;;5025565;28;20026;-36
2021/12/29 07:54:40;;;;;;;2.47;2.03;;;;;;;;;;5024609;28;20167;-31
2021/12/29 07:57:06;;;;;;;3.00;2.55;;;;;;;;;;5024385;28;20095;-32
2021/12/29 07:59:32;;;;;;;3.55;2.95;;;;;;;;;;5024305;28;20068;-34
2021/12/29 08:01:58;;;;;;;3.28;2.75;;;;;;;;;;5024450;28;20034;-35
2021/12/29 08:04:24;;;;;;;2.95;2.45;;;;;;;;;;5024536;28;20099;-33
2021/12/29 08:06:49;;;;;;;3.20;2.58;;;;;;;;;;5024138;28;20029;-35
2021/12/29 08:09:15;;;;;;;3.03;2.60;;;;;;;;;;5024116;28;20053;-36
2021/12/29 08:11:40;;;;;;;3.47;2.67;;;;;;;;;;5023883;28;20033;-30
2021/12/29 08:14:07;;;;;;;3.33;2.75;;;;;;;;;;5036668;28;20454;-34
2021/12/29 08:16:32;;;;;;;3.53;2.95;;;;;;;;;;5043806;28;20064;-36
2021/12/29 08:18:57;;;;;;;3.67;3.03;;;;;;;;;;5043782;28;20562;-32
2021/12/29 08:21:23;;;;;;;3.90;3.33;;;;;;;;;;5043686;28;20040;-31
2021/12/29 08:23:49;;;;;;;3.53;2.70;;;;;;;;;;5043415;28;20037;-32
2021/12/29 08:26:14;;;;;;;3.10;2.80;;;;;;;;;;5044142;28;20063;-33
2021/12/29 08:28:40;;;;;;;4.85;3.13;;;;;;;;;;5043211;28;20454;-32
2021/12/29 08:31:06;;;;;;;3.38;3.00;;;;;;;;;;5043930;28;20031;-35
2021/12/29 08:33:33;;;;;;;3.85;3.20;;;;;;;;;;5043514;28;20028;-36
2021/12/29 08:35:59;;;;;;;3.30;3.00;;;;;;;;;;5042813;28;20017;-32
2021/12/29 08:38:24;;;;;;;4.28;3.33;;;;;;;;;;5043562;28;20028;-31
2021/12/29 08:40:51;;;;;;;4.13;3.35;;;;;;;;;;5043481;28;20104;-32
2021/12/29 08:43:17;;;;;;;3.78;3.10;;;;;;;;;;5043571;28;20056;-34
2021/12/29 08:45:43;;;;;;;4.15;3.53;;;;;;;;;;5043091;28;20044;-33
2021/12/29 08:48:09;;;;;;;3.30;3.00;;;;;;;;;;5043357;28;20048;-35
2021/12/29 08:50:35;;;;;;;3.90;3.20;;;;;;;;;;5036547;28;20061;-33
2021/12/29 08:53:03;;;;;;;3.58;3.22;;;;;;;;;;5023370;28;20515;-36
2021/12/29 08:55:29;;;;;;;5.05;3.50;;;;;;;;;;5023721;28;20040;-31
2021/12/29 08:57:55;;;;;;;3.85;3.22;;;;;;;;;;5023346;28;20025;-31
2021/12/29 09:00:21;;;;;;;3.25;2.95;;;;;;;;;;5023211;28;20518;-32
2021/12/29 09:02:46;;;;;;;4.25;3.20;;;;;;;;;;5023321;28;20090;-29
2021/12/29 09:05:12;;;;;;;3.70;3.20;;;;;;;;;;5021489;28;20345;-31
2021/12/29 09:07:38;;;;;;;4.07;3.63;;;;;;;;;;5022826;28;20059;-35
2021/12/29 09:10:04;;;;;;;4.18;3.30;;;;;;;;;;5023075;28;20087;-34
2021/12/29 09:12:30;;;;;;;4.85;3.85;;;;;;;;;;5022909;28;20053;-36
2021/12/29 09:14:55;;;;;;;3.63;3.10;;;;;;;;;;5023288;28;20098;-32
2021/12/29 09:17:21;;;;;;;4.68;3.90;;;;;;;;;;5022928;28;20448;-31
2021/12/29 09:19:47;;;;;;;4.55;3.90;;;;;;;;;;5022709;28;20025;-32
2021/12/29 09:22:13;;;;;;;3.72;3.17;;;;;;;;;;5023070;28;20025;-29
2021/12/29 09:24:39;;;;;;;3.80;3.40;;;;;;;;;;5023264;28;20032;-37
2021/12/29 09:27:05;;;;;;;3.33;3.03;;;;;;;;;;5022830;28;20523;-35
2021/12/29 09:29:33;;;;;;;4.97;3.78;;;;;;;;;;5023077;28;20025;-33
2021/12/29 09:31:59;;;;;;;4.20;3.50;;;;;;;;;;5022960;28;20478;-30
2021/12/29 09:34:25;;;;;;;4.22;3.42;;;;;;;;;;5022714;28;20041;-32
2021/12/29 09:36:51;;;;;;;4.55;3.72;;;;;;;;;;5023234;28;20040;-32
2021/12/29 09:39:16;;;;;;;4.45;3.85;;;;;;;;;;5022840;28;20037;-31
2021/12/29 09:41:42;;;;;;;4.68;3.78;;;;;;;;;;5022440;28;20064;-32
2021/12/29 09:44:09;;;;;;;3.97;3.45;;;;;;;;;;5037909;28;20056;-32
2021/12/29 09:46:36;;;;;;;4.40;3.92;;;;;;;;;;5022682;28;20527;-33
2021/12/29 09:49:02;;;;;;;4.25;3.85;;;;;;;;;;5025896;28;20029;-34
2021/12/29 09:51:27;;;;;;;4.68;3.83;;;;;;;;;;5031803;28;20041;-35
2021/12/29 09:53:53;;;;;;;4.07;3.50;;;;;;;;;;5026418;28;20502;-36
2021/12/29 09:56:18;;;;;;;4.68;3.90;;;;;;;;;;5026542;28;20033;-30
2021/12/29 09:58:44;;;;;;;4.82;3.92;;;;;;;;;;5026763;28;20025;-33
2021/12/29 10:01:10;;;;;;;4.00;3.60;;;;;;;;;;5026764;28;20550;-34
2021/12/29 10:03:35;;;;;;;4.93;4.40;;;;;;;;;;5026774;28;20075;-31
2021/12/29 10:06:02;;;;;;;4.47;3.60;;;;;;;;;;5026359;28;20564;-34
2021/12/29 10:08:33;;;;;;;4.43;3.78;;;;;;;;;;5026422;28;20045;-33
2021/12/29 10:11:02;;;;;;;4.13;3.72;;;;;;;;;;5026254;28;20041;-34
2021/12/29 10:13:28;;;;;;;5.18;4.03;;;;;;;;;;5026551;28;20455;-31
2021/12/29 10:16:00;;;;;;;4.80;4.20;;;;;;;;;;5026005;28;20026;-32
2021/12/29 10:18:27;;;;;;;4.35;3.58;;;;;;;;;;5026193;28;20032;-31
2021/12/29 10:20:56;;;;;;;4.72;4.22;;;;;;;;;;5026201;28;20029;-38
2021/12/29 10:23:29;;;;;;;5.18;4.18;;;;;;;;;;5026543;28;20063;-30
2021/12/29 10:25:56;;;;;;;4.95;4.40;;;;;;;;;;5026239;28;20584;-37
2021/12/29 10:28:29;;;;;;;4.50;3.97;;;;;;;;;;5026042;28;20045;-35
2021/12/29 10:31:11;;;;;;;4.40;3.67;;;;;;;;;;5026021;28;20112;-31
2021/12/29 10:33:51;;;;;;;5.03;4.35;;;;;;;;;;5026031;28;20416;-34
2021/12/29 10:36:41;;;;;;;4.78;4.10;;;;;;;;;;5025825;28;20553;-32
2021/12/29 10:39:14;;;;;;;4.13;3.55;;;;;;;;;;5025894;28;20041;-36
2021/12/29 10:42:01;;;;;;;4.15;3.70;;;;;;;;;;5025759;28;20037;-36
2021/12/29 10:44:31;;;;;;;3.42;3.13;;;;;;;;;;5026213;28;20120;-35
2021/12/29 10:46:58;;;;;;;4.65;4.10;;;;;;;;;;5025798;28;20043;-35
2021/12/29 10:49:27;;;;;;;4.78;3.75;;;;;;;;;;5025586;28;20029;-36
2021/12/29 10:51:55;;;;;;;4.38;3.70;;;;;;;;;;5043556;28;20029;-36
2021/12/29 10:54:24;;;;;;;4.18;3.60;;;;;;;;;;5045249;28;20024;-33
2021/12/29 10:57:03;;;;;;;4.13;3.63;;;;;;;;;;5045478;28;20029;-32
2021/12/29 10:59:30;;;;;;;3.78;3.40;;;;;;;;;;5044834;28;20052;-32
2021/12/29 11:01:56;;;;;;;4.30;3.90;;;;;;;;;;5025032;28;20117;-30
2021/12/29 11:04:22;;;;;;;4.50;3.75;;;;;;;;;;5025268;28;20112;-34
2021/12/29 11:06:49;;;;;;;4.95;4.03;;;;;;;;;;5025587;28;20032;-31
2021/12/29 11:09:16;;;;;;;3.65;3.28;;;;;;;;;;5025077;28;20065;-37
2021/12/29 11:11:43;;;;;;;3.75;3.42;;;;;;;;;;5007223;28;20561;-30
2021/12/29 11:14:17;;;;;;;4.18;3.70;;;;;;;;;;5025347;28;20068;-38
2021/12/29 11:16:43;;;;;;;4.90;3.80;;;;;;;;;;5024892;28;20025;-33
2021/12/29 11:19:09;;;;;;;4.55;3.47;;;;;;;;;;5025312;28;20099;-31
2021/12/29 11:21:36;;;;;;;3.75;3.40;;;;;;;;;;5025647;28;20840;-32
2021/12/29 11:24:23;;;;;;;3.85;3.45;;;;;;;;;;5024857;28;20120;-36
2021/12/29 11:26:51;;;;;;;3.80;3.40;;;;;;;;;;5025389;28;20404;-36
2021/12/29 11:29:18;;;;;;;3.70;3.08;;;;;;;;;;5024999;28;20437;-35
2021/12/29 11:32:07;;;;;;;4.00;3.60;;;;;;;;;;5023656;28;20096;-29
2021/12/29 11:34:33;;;;;;;3.90;3.25;;;;;;;;;;5024794;28;20044;-33
2021/12/29 11:37:05;;;;;;;3.92;3.30;;;;;;;;;;5024705;28;20049;-32
2021/12/29 11:39:32;;;;;;;3.33;2.87;;;;;;;;;;5024986;28;20580;-31
2021/12/29 11:41:58;;;;;;;3.53;2.97;;;;;;;;;;5024565;28;20057;-36
2021/12/29 11:44:23;;;;;;;3.83;3.42;;;;;;;;;;5024836;28;20112;-33
2021/12/29 11:46:49;;;;;;;4.25;3.67;;;;;;;;;;5024822;28;20029;-32
2021/12/29 11:49:15;;;;;;;4.22;3.50;;;;;;;;;;5024366;28;20579;-29
2021/12/29 11:52:08;;;;;;;4.20;3.35;;;;;;;;;;5041777;28;20033;-37
2021/12/29 11:54:34;;;;;;;;;;;;;;;;;;5028262;28;20051;-37
2021/12/29 11:57:10;;;;;;;3.63;3.22;;;;;;;;;;5044316;28;19944;-30
2021/12/29 11:59:36;;;;;;;4.63;3.42;;;;;;;;;;5044778;28;20017;-32
2021/12/29 12:02:02;;;;;;;4.05;3.55;;;;;;;;;;5044317;28;20036;-34
2021/12/29 12:04:28;;;;;;;4.40;3.50;;;;;;;;;;5043012;28;20714;-32
2021/12/29 12:07:08;;;;;;;4.03;3.13;;;;;;;;;;5044161;28;20064;-33
2021/12/29 12:09:47;;;;;;;3.85;3.45;;;;;;;;;;5043782;28;20073;-36
2021/12/29 12:12:15;;;;;;;4.38;3.70;;;;;;;;;;5043700;28;20037;-30
2021/12/29 12:14:50;;;;;;;3.70;3.15;;;;;;;;;;5035539;28;20940;-32
2021/12/29 12:17:17;;;;;;;4.13;3.33;;;;;;;;;;5022564;28;20052;-34
2021/12/29 12:19:43;;;;;;;3.67;3.28;;;;;;;;;;5023713;28;20040;-31
2021/12/29 12:22:14;;;;;;;3.92;3.17;;;;;;;;;;5023974;28;20021;-30
2021/12/29 12:24:59;;;;;;;3.28;2.90;;;;;;;;;;5023884;28;20071;-36
2021/12/29 12:27:36;;;;;;;3.42;3.03;;;;;;;;;;5023943;28;20029;-30
2021/12/29 12:30:16;;;;;;;3.40;3.03;;;;;;;;;;5023816;28;20384;-33
2021/12/29 12:32:42;;;;;;;4.40;3.00;;;;;;;;;;5023868;28;20034;-33
2021/12/29 12:35:08;;;;;;;3.47;3.10;;;;;;;;;;5023609;28;20527;-29
2021/12/29 12:37:42;;;;;;;4.03;3.47;;;;;;;;;;5024471;28;20120;-36
2021/12/29 12:40:33;;;;;;;3.40;3.10;;;;;;;;;;5023640;28;20566;-35
2021/12/29 12:43:10;;;;;;;3.42;3.10;;;;;;;;;;5022260;28;20041;-34
2021/12/29 12:45:36;;;;;;;3.17;2.80;;;;;;;;;;5023480;28;20431;-31
2021/12/29 12:48:08;;;;;;;3.58;3.08;;;;;;;;;;5023511;28;20033;-35
2021/12/29 12:50:34;;;;;;;4.30;3.60;;;;;;;;;;5024352;28;20045;-35
2021/12/29 12:53:00;;;;;;;3.50;3.20;;;;;;;;;;5023231;28;20114;-32
2021/12/29 12:55:26;;;;;;;3.75;3.30;;;;;;;;;;5023198;28;20563;-31
2021/12/29 12:57:52;;;;;;;3.65;2.95;;;;;;;;;;5021553;28;20106;-31
2021/12/29 13:00:27;;;;;;;4.55;3.28;;;;;;;;;;5022792;28;20108;-33
2021/12/29 13:03:00;;;;;;;4.13;3.50;;;;;;;;;;5023365;28;20056;-31
2021/12/29 13:05:38;;;;;;;3.38;3.05;;;;;;;;;;5024039;28;20519;-29
2021/12/29 13:08:10;;;;;;;3.75;3.00;;;;;;;;;;5042789;28;20055;-29
2021/12/29 13:10:38;;;;;;;3.47;3.00;;;;;;;;;;5042914;28;20032;-33
2021/12/29 13:13:09;;;;;;;3.70;2.83;;;;;;;;;;5042967;28;20041;-33
2021/12/29 13:15:35;;;;;;;3.50;2.97;;;;;;;;;;5043272;28;20051;-31
2021/12/29 13:18:01;;;;;;;3.72;3.03;;;;;;;;;;5042772;28;20764;-34
2021/12/29 13:20:26;;;;;;;3.33;3.00;;;;;;;;;;5043165;28;20029;-32
2021/12/29 13:22:52;;;;;;;3.05;2.75;;;;;;;;;;5043025;28;20052;-32
2021/12/29 13:25:20;;;;;;;3.80;3.08;;;;;;;;;;5042827;28;20083;-36
2021/12/29 13:28:02;;;;;;;3.35;2.92;;;;;;;;;;5042197;28;20103;-31
2021/12/29 13:30:35;;;;;;;4.10;3.03;;;;;;;;;;5042712;28;20053;-36
2021/12/29 13:33:01;;;;;;;3.72;3.03;;;;;;;;;;5042807;28;20028;-32
2021/12/29 13:35:29;;;;;;;3.58;3.10;;;;;;;;;;5042490;28;20037;-35
2021/12/29 13:37:59;;;;;;;4.72;3.35;;;;;;;;;;5042329;28;20021;-32
2021/12/29 13:40:36;;;;;;;3.65;3.28;;;;;;;;;;5042807;28;20033;-34
2021/12/29 13:43:02;;;;;;;3.60;2.90;;;;;;;;;;5042642;28;20721;-35
2021/12/29 13:45:28;;;;;;;4.30;3.35;;;;;;;;;;5041060;28;20060;-36
2021/12/29 13:47:54;;;;;;;3.35;2.90;;;;;;;;;;5042629;28;20028;-34
2021/12/29 13:50:20;;;;;;;4.00;3.10;;;;;;;;;;5042004;28;20028;-31
2021/12/29 13:53:05;;;;;;;4.00;3.17;;;;;;;;;;5040697;28;20112;-33
2021/12/29 13:55:34;;;;;;;4.75;3.63;;;;;;;;;;5042753;28;20224;-34
2021/12/29 13:58:00;;;;;;;3.10;2.80;;;;;;;;;;5042562;28;20025;-32
2021/12/29 14:00:25;;;;;;;3.40;3.08;;;;;;;;;;5040914;28;20051;-34
2021/12/29 14:02:51;;;;;;;4.60;3.30;;;;;;;;;;5042501;28;20037;-33
2021/12/29 14:05:16;;;;;;;4.07;3.17;;;;;;;;;;5042195;28;20029;-32
2021/12/29 14:07:42;;;;;;;4.18;3.42;;;;;;;;;;5041724;28;20045;-30
2021/12/29 14:10:08;;;;;;;4.72;3.70;;;;;;;;;;5042867;28;20033;-33
2021/12/29 14:12:36;;;;;;;4.05;3.40;;;;;;;;;;5042247;28;20040;-31
2021/12/29 14:15:04;;;;;;;4.25;3.47;;;;;;;;;;5042483;28;20033;-33
2021/12/29 14:17:36;;;;;;;4.10;3.50;;;;;;;;;;5042164;28;20082;-34
2021/12/29 14:20:10;;;;;;;4.93;3.88;;;;;;;;;;5042316;28;20029;-31
2021/12/29 14:22:36;;;;;;;4.57;3.80;;;;;;;;;;5042405;28;20060;-30
2021/12/29 14:25:09;;;;;;;4.35;3.72;;;;;;;;;;5040813;28;20029;-32
2021/12/29 14:27:37;;;;;;;4.72;3.75;;;;;;;;;;5042238;28;20523;-32
2021/12/29 14:30:16;;;;;;;5.00;4.00;;;;;;;;;;5041986;28;20049;-32
2021/12/29 14:32:58;;;;;;;4.28;3.67;;;;;;;;;;5022381;28;20026;-32
2021/12/29 14:35:24;;;;;;;4.32;3.80;;;;;;;;;;5025813;28;20035;-30
2021/12/29 14:37:50;;;;;;;5.35;4.38;;;;;;;;;;5025603;28;20589;-35
2021/12/29 14:40:23;;;;;;;5.70;4.43;;;;;;;;;;5026013;28;20030;-31
2021/12/29 14:42:49;;;;;;;5.05;4.45;;;;;;;;;;5025686;28;20049;-33
2021/12/29 14:45:14;;;;;;;4.25;3.80;;;;;;;;;;5024288;28;20037;-35
2021/12/29 14:47:44;;;;;;;5.35;4.13;;;;;;;;;;5025640;28;20021;-31
2021/12/29 14:50:12;;;;;;;5.78;4.15;;;;;;;;;;5024950;28;20551;-31
2021/12/29 14:52:43;;;;;;;5.30;4.45;;;;;;;;;;5024307;28;20633;-36